Kousekimaru No2 — JM5898 — position and weather

sailwx.info

Track history (hours):
 
Tides and Currents Weather Stations Pressure Air Temp Water Temp Dewpoint Dewpoint Depression Visibility Wind Speed Wind Dir Waves Ship Positions

Kousekimaru No2

Last reported at 2017-Nov-18 03:22 UTC. Time now 2017-Nov-25 02:05 UTC.
Position N 35°32' E 140°03'.

Length 160 m; draft 10.5 m.

Type: Cargo ship. MMSI: 431400685.

Date/timePositionNaut miles runAvg speedWind from/ knotsBaromVisibWave heightAir tempDewpointWater temp
2017-Nov-18 03:22N 35°32' E 140°03'6 9.8
2017-Nov-18 02:46N 35°31' E 139°56'312.7
2017-Nov-18 02:31N 35°29' E 139°53'612.8
2017-Nov-18 02:01N 35°25' E 139°47'612.4
2017-Nov-18 01:31N 35°19' E 139°44'611.5
2017-Nov-18 01:01N 35°14' E 139°47'612.4
2017-Nov-18 00:30N 35°07' E 139°47'611.0
2017-Nov-18 00:00N 35°02' E 139°47'2 3.7
2017-Nov-17 23:30N 35°01' E 139°49'0 0.1
2017-Nov-17 23:01N 35°01' E 139°49'0 0.0
2017-Nov-17 22:31N 35°01' E 139°49'0 0.0
2017-Nov-17 22:01N 35°01' E 139°49'0 0.1
2017-Nov-17 21:31N 35°01' E 139°49'0 0.0
2017-Nov-17 21:01N 35°01' E 139°49'0 0.0
2017-Nov-17 20:30N 35°01' E 139°49'0 0.1
2017-Nov-17 20:01N 35°01' E 139°49'0 0.0
2017-Nov-17 19:31N 35°01' E 139°49'0 0.0
2017-Nov-17 19:01N 35°01' E 139°49'0 0.1
2017-Nov-17 18:31N 35°01' E 139°49'0 0.0
2017-Nov-17 18:00N 35°01' E 139°49'0 0.0
2017-Nov-17 17:31N 35°01' E 139°49'0 0.1
2017-Nov-17 17:00N 35°01' E 139°49'0 0.2
2017-Nov-17 16:30N 35°01' E 139°49'0 0.1
2017-Nov-17 16:01N 35°01' E 139°49'0 0.1
2017-Nov-17 15:31N 35°01' E 139°49'0 0.1
2017-Nov-17 15:01N 35°01' E 139°49'0 0.1
2017-Nov-17 14:22N 35°01' E 139°49'0 0.0
2017-Nov-17 13:58N 35°01' E 139°49'0 0.0
2017-Nov-17 13:22N 35°01' E 139°49'0 0.1
2017-Nov-17 12:58N 35°01' E 139°49'0 0.0
2017-Nov-17 12:28N 35°01' E 139°49'0 0.0
2017-Nov-17 11:58N 35°01' E 139°49'0 0.0
2017-Nov-17 11:28N 35°01' E 139°49'0 0.1
2017-Nov-17 10:58N 35°01' E 139°49'0 0.1
2017-Nov-17 10:28N 35°01' E 139°49'0 0.0
2017-Nov-17 09:28N 35°01' E 139°49'0 0.0
2017-Nov-17 08:46N 35°01' E 139°49'0 0.0
2017-Nov-17 08:22N 35°01' E 139°49'0 0.1
2017-Nov-17 07:58N 35°01' E 139°49'0 0.0
2017-Nov-17 06:28N 35°01' E 139°49'0 0.1
2017-Nov-17 05:58N 35°01' E 139°49'0 0.1
2017-Nov-17 05:22N 35°01' E 139°49'0 0.2
2017-Nov-17 04:58N 35°01' E 139°49'0 0.2
2017-Nov-17 04:28N 35°01' E 139°49'0 0.0
2017-Nov-17 03:58N 35°01' E 139°49'0 0.0
2017-Nov-17 03:16N 35°01' E 139°49'0 0.0
2017-Nov-17 02:58N 35°01' E 139°49'0 0.0
2017-Nov-17 02:28N 35°01' E 139°49'0 0.1
2017-Nov-17 01:52N 35°01' E 139°49'0 0.1
2017-Nov-17 01:28N 35°01' E 139°49'0 0.1
2017-Nov-17 00:59N 35°01' E 139°49'2 3.7
2017-Nov-17 00:30N 35°00' E 139°47'5 9.1
2017-Nov-17 00:00N 34°59' E 139°41'611.3
2017-Nov-16 23:30N 34°56' E 139°35'  
2017-Nov-13 00:42N 35°31' E 139°56'212.3
2017-Nov-13 00:30N 35°30' E 139°54'612.3
2017-Nov-13 00:00N 35°26' E 139°48'612.2
2017-Nov-12 23:30N 35°20' E 139°45'611.3
2017-Nov-12 23:00N 35°15' E 139°47'611.7
2017-Nov-12 22:30N 35°09' E 139°46'611.4
2017-Nov-12 22:00N 35°04' E 139°42'612.0
2017-Nov-12 21:30N 35°00' E 139°37'612.3
2017-Nov-12 21:00N 34°56' E 139°32'  
Track history (hours):
 
Tides and Currents Weather Stations Pressure Air Temp Water Temp Dewpoint Dewpoint Depression Visibility Wind Speed Wind Dir Waves Ship Positions

Kousekimaru No2

Last reported at 2017-Nov-18 03:22 UTC. Time now 2017-Nov-25 02:05 UTC.
Position N 35°32' E 140°03'.

Length 160 m; draft 10.5 m.

Type: Cargo ship. MMSI: 431400685.

Date/timePositionNaut miles runAvg speedWind from/ knotsBaromVisibWave heightAir tempDewpointWater temp
2017-Nov-18 03:22N 35°32' E 140°03'6 9.8
2017-Nov-18 02:46N 35°31' E 139°56'312.7
2017-Nov-18 02:31N 35°29' E 139°53'612.8
2017-Nov-18 02:01N 35°25' E 139°47'612.4
2017-Nov-18 01:31N 35°19' E 139°44'611.5
2017-Nov-18 01:01N 35°14' E 139°47'612.4
2017-Nov-18 00:30N 35°07' E 139°47'611.0
2017-Nov-18 00:00N 35°02' E 139°47'2 3.7
2017-Nov-17 23:30N 35°01' E 139°49'0 0.1
2017-Nov-17 23:01N 35°01' E 139°49'0 0.0
2017-Nov-17 22:31N 35°01' E 139°49'0 0.0
2017-Nov-17 22:01N 35°01' E 139°49'0 0.1
2017-Nov-17 21:31N 35°01' E 139°49'0 0.0
2017-Nov-17 21:01N 35°01' E 139°49'0 0.0
2017-Nov-17 20:30N 35°01' E 139°49'0 0.1
2017-Nov-17 20:01N 35°01' E 139°49'0 0.0
2017-Nov-17 19:31N 35°01' E 139°49'0 0.0
2017-Nov-17 19:01N 35°01' E 139°49'0 0.1
2017-Nov-17 18:31N 35°01' E 139°49'0 0.0
2017-Nov-17 18:00N 35°01' E 139°49'0 0.0
2017-Nov-17 17:31N 35°01' E 139°49'0 0.1
2017-Nov-17 17:00N 35°01' E 139°49'0 0.2
2017-Nov-17 16:30N 35°01' E 139°49'0 0.1
2017-Nov-17 16:01N 35°01' E 139°49'0 0.1
2017-Nov-17 15:31N 35°01' E 139°49'0 0.1
2017-Nov-17 15:01N 35°01' E 139°49'0 0.1
2017-Nov-17 14:22N 35°01' E 139°49'0 0.0
2017-Nov-17 13:58N 35°01' E 139°49'0 0.0
2017-Nov-17 13:22N 35°01' E 139°49'0 0.1
2017-Nov-17 12:58N 35°01' E 139°49'0 0.0
2017-Nov-17 12:28N 35°01' E 139°49'0 0.0
2017-Nov-17 11:58N 35°01' E 139°49'0 0.0
2017-Nov-17 11:28N 35°01' E 139°49'0 0.1
2017-Nov-17 10:58N 35°01' E 139°49'0 0.1
2017-Nov-17 10:28N 35°01' E 139°49'0 0.0
2017-Nov-17 09:28N 35°01' E 139°49'0 0.0
2017-Nov-17 08:46N 35°01' E 139°49'0 0.0
2017-Nov-17 08:22N 35°01' E 139°49'0 0.1
2017-Nov-17 07:58N 35°01' E 139°49'0 0.0
2017-Nov-17 06:28N 35°01' E 139°49'0 0.1
2017-Nov-17 05:58N 35°01' E 139°49'0 0.1
2017-Nov-17 05:22N 35°01' E 139°49'0 0.2
2017-Nov-17 04:58N 35°01' E 139°49'0 0.2
2017-Nov-17 04:28N 35°01' E 139°49'0 0.0
2017-Nov-17 03:58N 35°01' E 139°49'0 0.0
2017-Nov-17 03:16N 35°01' E 139°49'0 0.0
2017-Nov-17 02:58N 35°01' E 139°49'0 0.0
2017-Nov-17 02:28N 35°01' E 139°49'0 0.1
2017-Nov-17 01:52N 35°01' E 139°49'0 0.1
2017-Nov-17 01:28N 35°01' E 139°49'0 0.1
2017-Nov-17 00:59N 35°01' E 139°49'2 3.7
2017-Nov-17 00:30N 35°00' E 139°47'5 9.1
2017-Nov-17 00:00N 34°59' E 139°41'611.3
2017-Nov-16 23:30N 34°56' E 139°35'  
2017-Nov-13 00:42N 35°31' E 139°56'212.3
2017-Nov-13 00:30N 35°30' E 139°54'612.3
2017-Nov-13 00:00N 35°26' E 139°48'612.2
2017-Nov-12 23:30N 35°20' E 139°45'611.3
2017-Nov-12 23:00N 35°15' E 139°47'611.7
2017-Nov-12 22:30N 35°09' E 139°46'611.4
2017-Nov-12 22:00N 35°04' E 139°42'612.0
2017-Nov-12 21:30N 35°00' E 139°37'612.3
2017-Nov-12 21:00N 34°56' E 139°32'  

Dump ship's entire track history